createdAt,value
2022-09-18T00:00:39.651Z,12.76
2022-09-18T00:03:26.231Z,12.70
2022-09-18T00:06:11.108Z,12.62
2022-09-18T00:09:03.716Z,12.64
2022-09-18T00:11:47.639Z,12.80
2022-09-18T00:14:35.230Z,12.69
2022-09-18T00:17:16.167Z,12.65
2022-09-18T00:20:06.146Z,12.43
2022-09-18T00:22:54.518Z,12.67
2022-09-18T00:25:36.272Z,12.49
2022-09-18T00:28:24.150Z,12.45
2022-09-18T00:31:17.096Z,12.42
2022-09-18T00:34:08.195Z,12.39
2022-09-18T00:36:50.530Z,12.37
2022-09-18T00:39:38.900Z,12.34
2022-09-18T00:42:21.091Z,12.32
2022-09-18T00:45:10.308Z,12.28
2022-09-18T00:47:55.404Z,12.23
2022-09-18T00:50:43.135Z,12.19
2022-09-18T00:53:24.668Z,12.32
2022-09-18T00:56:17.278Z,12.41
2022-09-18T00:58:58.287Z,12.37
2022-09-18T01:01:45.295Z,12.32
2022-09-18T01:04:26.343Z,12.35
2022-09-18T01:07:27.185Z,12.25
2022-09-18T01:10:20.351Z,12.22
2022-09-18T01:13:22.152Z,12.19
2022-09-18T01:16:16.319Z,12.18
2022-09-18T01:19:26.515Z,12.18
2022-09-18T01:22:45.182Z,12.29
2022-09-18T01:26:11.691Z,12.38
2022-09-18T01:28:58.058Z,12.32
2022-09-18T01:31:55.685Z,12.30
2022-09-18T01:34:39.300Z,12.20
2022-09-18T01:37:42.945Z,12.11
2022-09-18T01:40:31.546Z,12.04
2022-09-18T01:43:24.429Z,12.27
2022-09-18T01:46:12.350Z,12.41
2022-09-18T01:49:08.184Z,12.42
2022-09-18T01:52:03.428Z,12.15
2022-09-18T01:54:57.178Z,12.01
2022-09-18T01:57:48.334Z,11.98
2022-09-18T02:00:38.650Z,12.04
2022-09-18T02:03:26.973Z,12.02
2022-09-18T02:06:21.780Z,11.94
2022-09-18T02:09:05.310Z,11.89
2022-09-18T02:12:03.192Z,11.91
2022-09-18T02:15:01.741Z,11.85
2022-09-18T02:18:02.419Z,11.85
2022-09-18T02:20:54.323Z,11.84
2022-09-18T02:23:51.183Z,11.86
2022-09-18T02:26:40.487Z,11.76
2022-09-18T02:29:25.573Z,11.68
2022-09-18T02:32:15.330Z,11.55
2022-09-18T02:34:57.572Z,11.59
2022-09-18T02:37:50.719Z,11.64
2022-09-18T02:40:41.300Z,11.64
2022-09-18T02:43:49.312Z,11.68
2022-09-18T02:46:42.366Z,11.58
2022-09-18T02:49:58.430Z,11.44
2022-09-18T02:52:49.004Z,11.32
2022-09-18T02:55:49.327Z,11.33
2022-09-18T02:58:46.257Z,11.26
2022-09-18T03:01:36.205Z,11.16
2022-09-18T03:04:26.205Z,11.17
2022-09-18T03:07:19.338Z,11.12
2022-09-18T03:10:02.236Z,11.05
2022-09-18T03:12:50.724Z,11.05
2022-09-18T03:15:31.245Z,10.95
2022-09-18T03:18:22.394Z,10.89
2022-09-18T03:21:05.511Z,10.80
2022-09-18T03:23:54.731Z,10.71
2022-09-18T03:26:39.238Z,10.67
2022-09-18T03:29:28.369Z,10.57
2022-09-18T03:32:10.263Z,10.56
2022-09-18T03:35:03.515Z,10.59
2022-09-18T03:37:45.576Z,10.56
2022-09-18T03:40:35.422Z,10.54
2022-09-18T03:43:16.253Z,10.58
2022-09-18T03:46:04.697Z,10.58
2022-09-18T03:48:46.064Z,10.53
2022-09-18T03:51:35.408Z,10.43
2022-09-18T03:54:17.802Z,10.32
2022-09-18T03:57:19.666Z,10.27
2022-09-18T04:00:34.615Z,10.26
2022-09-18T04:03:21.696Z,10.18
2022-09-18T04:06:28.244Z,10.08
2022-09-18T04:09:18.689Z,10.02
2022-09-18T04:12:08.358Z,9.99
2022-09-18T04:14:59.414Z,9.97
2022-09-18T04:17:40.290Z,9.94
2022-09-18T04:20:28.811Z,9.91
2022-09-18T04:23:23.646Z,9.87
2022-09-18T04:26:12.435Z,9.88
2022-09-18T04:29:03.503Z,9.84
2022-09-18T04:31:51.641Z,9.79
2022-09-18T04:34:33.280Z,9.81
2022-09-18T04:37:24.536Z,9.86
2022-09-18T04:40:08.077Z,9.83
2022-09-18T04:42:56.378Z,9.85
2022-09-18T04:45:37.654Z,9.83
2022-09-18T04:48:26.154Z,9.80
2022-09-18T04:51:09.302Z,9.75
2022-09-18T04:53:55.937Z,9.76
2022-09-18T04:56:43.300Z,9.73
2022-09-18T04:59:34.894Z,9.77
2022-09-18T05:02:15.445Z,9.80
2022-09-18T05:05:05.394Z,9.77
2022-09-18T05:07:48.271Z,9.77
2022-09-18T05:10:40.412Z,9.82
2022-09-18T05:13:23.655Z,9.78
2022-09-18T05:16:12.988Z,9.75
2022-09-18T05:19:13.649Z,9.74
2022-09-18T05:22:07.307Z,9.74
2022-09-18T05:25:00.315Z,9.68
2022-09-18T05:27:41.439Z,9.66
2022-09-18T05:30:30.287Z,9.67
2022-09-18T05:33:13.819Z,9.75
2022-09-18T05:36:06.456Z,9.71
2022-09-18T05:38:48.456Z,9.80
2022-09-18T05:41:38.325Z,9.92
2022-09-18T05:44:20.160Z,9.93
2022-09-18T05:47:07.308Z,9.88
2022-09-18T05:49:48.427Z,9.93
2022-09-18T05:52:40.217Z,9.88
2022-09-18T05:55:23.383Z,10.21
2022-09-18T05:58:12.303Z,10.10
2022-09-18T06:00:54.464Z,10.26
2022-09-18T06:03:58.311Z,10.52
2022-09-18T06:06:50.475Z,10.27
2022-09-18T06:09:39.319Z,10.09
2022-09-18T06:12:20.426Z,10.02
2022-09-18T06:15:07.340Z,10.05
2022-09-18T06:17:49.464Z,10.10
2022-09-18T06:20:38.703Z,10.20
2022-09-18T06:23:26.490Z,10.36
2022-09-18T06:26:15.179Z,11.23
2022-09-18T06:29:04.840Z,12.81
2022-09-18T06:31:55.404Z,14.31
2022-09-18T06:34:44.456Z,15.61
2022-09-18T06:37:25.340Z,16.65
2022-09-18T06:40:27.866Z,17.70
2022-09-18T06:43:34.343Z,18.54
2022-09-18T06:46:22.161Z,19.20
2022-09-18T06:49:14.936Z,19.64
2022-09-18T06:52:01.643Z,20.08
2022-09-18T06:54:44.370Z,20.48
2022-09-18T06:57:38.634Z,20.83
2022-09-18T07:00:29.406Z,21.12
2022-09-18T07:03:17.444Z,21.45
2022-09-18T07:06:19.356Z,21.83
2022-09-18T07:09:07.469Z,22.26
2022-09-18T07:11:59.373Z,22.57
2022-09-18T07:14:54.086Z,22.89
2022-09-18T07:17:43.465Z,23.18
2022-09-18T07:20:32.557Z,23.52
2022-09-18T07:23:21.106Z,23.83
2022-09-18T07:26:02.485Z,24.07
2022-09-18T07:28:50.767Z,24.27
2022-09-18T07:31:42.196Z,24.49
2022-09-18T07:34:34.637Z,24.68
2022-09-18T07:37:18.619Z,24.77
2022-09-18T07:40:22.435Z,24.83
2022-09-18T07:43:27.606Z,24.96
2022-09-18T07:46:17.460Z,24.90
2022-09-18T07:49:01.495Z,25.04
2022-09-18T07:51:50.387Z,25.14
2022-09-18T07:54:39.037Z,25.30
2022-09-18T07:57:46.131Z,25.55
2022-09-18T08:00:42.471Z,25.47
2022-09-18T08:03:29.939Z,25.29
2022-09-18T08:06:34.537Z,25.36
2022-09-18T08:09:30.771Z,25.44
2022-09-18T08:12:49.630Z,25.52
2022-09-18T08:15:37.538Z,25.52
2022-09-18T08:18:55.858Z,25.51
2022-09-18T08:22:04.332Z,25.33
2022-09-18T08:24:57.498Z,25.17
2022-09-18T08:27:43.392Z,24.88
2022-09-18T08:30:35.146Z,24.87
2022-09-18T08:33:24.444Z,25.02
2022-09-18T08:36:14.531Z,25.36
2022-09-18T08:39:23.510Z,25.70
2022-09-18T08:42:37.674Z,26.12
2022-09-18T08:45:24.411Z,26.48
2022-09-18T08:48:23.136Z,26.82
2022-09-18T08:51:22.492Z,27.07
2022-09-18T08:54:33.621Z,27.17
2022-09-18T08:57:59.438Z,27.39
2022-09-18T09:00:55.435Z,27.39
2022-09-18T09:04:08.879Z,27.24
2022-09-18T09:07:38.574Z,27.09
2022-09-18T09:10:25.457Z,26.94
2022-09-18T09:13:36.529Z,27.03
2022-09-18T09:16:20.529Z,27.28
2022-09-18T09:19:16.983Z,27.18
2022-09-18T09:22:07.477Z,27.12
2022-09-18T09:25:15.560Z,26.93
2022-09-18T09:28:27.404Z,26.88
2022-09-18T09:31:43.310Z,26.65
2022-09-18T09:35:01.450Z,26.83
2022-09-18T09:37:49.138Z,26.83
2022-09-18T09:41:09.875Z,26.90
2022-09-18T09:44:29.614Z,26.98
2022-09-18T09:47:37.434Z,27.24
2022-09-18T09:50:52.589Z,27.21
2022-09-18T09:53:34.852Z,27.31
2022-09-18T09:56:45.799Z,26.79
2022-09-18T09:59:34.474Z,26.49
2022-09-18T10:02:36.547Z,26.30
2022-09-18T10:05:43.442Z,26.37
2022-09-18T10:08:48.568Z,26.36
2022-09-18T10:11:31.208Z,26.33
2022-09-18T10:14:27.611Z,26.36
2022-09-18T10:17:11.732Z,26.47
2022-09-18T10:19:58.599Z,26.59
2022-09-18T10:22:54.990Z,26.60
2022-09-18T10:26:02.584Z,26.51
2022-09-18T10:28:43.575Z,26.54
2022-09-18T10:31:31.030Z,26.10
2022-09-18T10:34:49.868Z,25.56
2022-09-18T10:37:38.694Z,25.58
2022-09-18T10:40:40.537Z,25.76
2022-09-18T10:43:28.659Z,25.89
2022-09-18T10:46:12.403Z,25.43
2022-09-18T10:49:04.597Z,24.84
2022-09-18T10:51:45.870Z,24.34
2022-09-18T10:54:33.625Z,23.98
2022-09-18T10:57:39.879Z,23.82
2022-09-18T11:00:33.974Z,23.56
2022-09-18T11:03:31.614Z,23.74
2022-09-18T11:06:26.952Z,23.39
2022-09-18T11:09:26.614Z,22.98
2022-09-18T11:12:27.263Z,22.87
2022-09-18T11:15:14.532Z,23.04
2022-09-18T11:18:05.010Z,23.25
2022-09-18T11:20:50.530Z,23.47
2022-09-18T11:23:49.527Z,23.65
2022-09-18T11:26:38.930Z,23.85
2022-09-18T11:29:37.049Z,23.68
2022-09-18T11:32:37.917Z,23.62
2022-09-18T11:35:22.855Z,23.75
2022-09-18T11:38:14.896Z,23.55
2022-09-18T11:41:03.026Z,23.60
2022-09-18T11:44:24.365Z,23.91
2022-09-18T11:47:36.759Z,24.24
2022-09-18T11:50:31.535Z,24.11
2022-09-18T11:53:27.931Z,24.04
2022-09-18T11:56:47.531Z,24.27
2022-09-18T11:59:53.739Z,24.36
2022-09-18T12:02:54.790Z,24.33
2022-09-18T12:05:44.712Z,24.34
2022-09-18T12:08:39.601Z,24.07
2022-09-18T12:11:41.453Z,23.82
2022-09-18T12:14:53.604Z,23.64
2022-09-18T12:18:12.655Z,23.60
2022-09-18T12:21:17.182Z,23.56
2022-09-18T12:24:05.327Z,23.53
2022-09-18T12:26:55.987Z,23.11
2022-09-18T12:30:04.182Z,23.01
2022-09-18T12:33:23.190Z,22.65
2022-09-18T12:36:18.374Z,21.96
2022-09-18T12:39:23.349Z,22.04
2022-09-18T12:42:20.107Z,22.26
2022-09-18T12:45:39.626Z,22.33
2022-09-18T12:48:36.926Z,22.29
2022-09-18T12:51:29.353Z,21.91
2022-09-18T12:54:46.947Z,21.80
2022-09-18T12:57:40.643Z,21.67
2022-09-18T13:00:28.989Z,21.47
2022-09-18T13:03:28.843Z,21.48
2022-09-18T13:06:23.619Z,20.97
2022-09-18T13:09:16.119Z,20.69
2022-09-18T13:12:09.956Z,20.94
2022-09-18T13:15:00.879Z,20.89
2022-09-18T13:17:54.065Z,21.05
2022-09-18T13:20:45.671Z,21.24
2022-09-18T13:23:49.600Z,21.37
2022-09-18T13:26:41.698Z,21.46
2022-09-18T13:30:02.216Z,21.27
2022-09-18T13:32:49.624Z,21.39
2022-09-18T13:35:31.743Z,21.23
2022-09-18T13:38:24.792Z,21.16
2022-09-18T13:41:12.177Z,20.99
2022-09-18T13:44:06.325Z,21.03
2022-09-18T13:46:48.894Z,21.12
2022-09-18T13:49:38.596Z,20.97
2022-09-18T13:52:40.089Z,20.84
2022-09-18T13:55:30.944Z,20.80
2022-09-18T13:58:39.773Z,20.59
2022-09-18T14:01:46.593Z,20.42
2022-09-18T14:04:51.981Z,20.35
2022-09-18T14:07:41.058Z,20.36
2022-09-18T14:11:14.201Z,20.48
2022-09-18T14:14:05.313Z,20.39
2022-09-18T14:16:50.974Z,20.58
2022-09-18T14:19:43.505Z,20.70
2022-09-18T14:22:38.138Z,20.60
2022-09-18T14:25:52.939Z,20.66
2022-09-18T14:28:38.141Z,20.53
2022-09-18T14:31:38.099Z,20.57
2022-09-18T14:34:42.759Z,20.69
2022-09-18T14:37:36.434Z,20.63
2022-09-18T14:40:32.647Z,20.86
2022-09-18T14:43:28.361Z,20.83
2022-09-18T14:46:11.693Z,20.92
2022-09-18T14:49:00.981Z,21.00
2022-09-18T14:52:03.575Z,20.96
2022-09-18T14:54:56.602Z,21.10
2022-09-18T14:57:44.879Z,21.13
2022-09-18T15:00:36.637Z,21.03
2022-09-18T15:03:28.311Z,20.99
2022-09-18T15:06:31.328Z,20.95
2022-09-18T15:09:15.733Z,20.88
2022-09-18T15:12:03.486Z,20.99
2022-09-18T15:14:47.766Z,21.00
2022-09-18T15:17:40.997Z,20.99
2022-09-18T15:20:23.759Z,20.96
2022-09-18T15:23:34.712Z,20.93
2022-09-18T15:26:23.776Z,20.99
2022-09-18T15:29:07.647Z,20.96
2022-09-18T15:31:57.287Z,20.75
2022-09-18T15:34:53.039Z,20.67
2022-09-18T15:37:43.301Z,20.78
2022-09-18T15:40:28.456Z,20.87
2022-09-18T15:43:41.257Z,20.79
2022-09-18T15:46:37.894Z,20.90
2022-09-18T15:49:42.419Z,20.95
2022-09-18T15:52:44.219Z,20.81
2022-09-18T15:55:33.915Z,20.84
2022-09-18T15:58:32.647Z,20.83
2022-09-18T16:01:25.905Z,20.90
2022-09-18T16:04:14.737Z,20.97
2022-09-18T16:07:27.072Z,20.94
2022-09-18T16:10:08.806Z,20.93
2022-09-18T16:12:57.936Z,20.82
2022-09-18T16:15:42.837Z,20.73
2022-09-18T16:18:33.753Z,20.72
2022-09-18T16:21:16.153Z,20.68
2022-09-18T16:24:17.650Z,20.50
2022-09-18T16:27:14.553Z,20.31
2022-09-18T16:29:58.256Z,20.33
2022-09-18T16:32:48.196Z,20.24
2022-09-18T16:35:30.432Z,20.16
2022-09-18T16:38:20.894Z,20.01
2022-09-18T16:41:02.820Z,19.79
2022-09-18T16:43:53.074Z,19.74
2022-09-18T16:46:38.473Z,19.66
2022-09-18T16:49:33.140Z,19.52
2022-09-18T16:52:13.966Z,19.52
2022-09-18T16:55:01.095Z,19.51
2022-09-18T16:57:44.938Z,19.50
2022-09-18T17:00:31.862Z,19.47
2022-09-18T17:03:13.831Z,19.34
2022-09-18T17:06:03.526Z,19.28
2022-09-18T17:08:46.796Z,19.15
2022-09-18T17:11:34.735Z,19.06
2022-09-18T17:14:16.827Z,18.98
2022-09-18T17:17:05.765Z,18.96
2022-09-18T17:19:46.859Z,18.93
2022-09-18T17:22:34.087Z,18.86
2022-09-18T17:25:21.941Z,18.77
2022-09-18T17:28:02.801Z,18.70
2022-09-18T17:30:51.221Z,18.55
2022-09-18T17:33:31.721Z,18.49
2022-09-18T17:36:22.794Z,18.43
2022-09-18T17:39:04.107Z,18.42
2022-09-18T17:41:55.337Z,18.32
2022-09-18T17:44:38.734Z,18.20
2022-09-18T17:47:25.878Z,18.10
2022-09-18T17:50:11.741Z,18.05
2022-09-18T17:53:01.340Z,17.87
2022-09-18T17:55:41.799Z,17.85
2022-09-18T17:58:28.947Z,17.91
2022-09-18T18:01:16.728Z,17.84
2022-09-18T18:04:08.228Z,17.71
2022-09-18T18:06:48.825Z,17.52
2022-09-18T18:09:37.587Z,17.42
2022-09-18T18:12:21.122Z,17.43
2022-09-18T18:15:08.178Z,17.37
2022-09-18T18:17:51.995Z,17.30
2022-09-18T18:20:41.858Z,17.27
2022-09-18T18:23:22.743Z,17.14
2022-09-18T18:26:12.886Z,17.12
2022-09-18T18:28:53.812Z,16.90
2022-09-18T18:31:41.233Z,16.87
2022-09-18T18:34:29.199Z,16.84
2022-09-18T18:37:20.478Z,16.89
2022-09-18T18:40:00.819Z,16.83
2022-09-18T18:42:48.859Z,16.79
2022-09-18T18:45:31.287Z,16.75
2022-09-18T18:48:18.946Z,16.56
2022-09-18T18:51:03.803Z,16.64
2022-09-18T18:53:51.891Z,16.57
2022-09-18T18:56:33.125Z,16.56
2022-09-18T18:59:25.558Z,16.50
2022-09-18T19:02:07.351Z,16.56
2022-09-18T19:05:03.756Z,16.56
2022-09-18T19:07:44.802Z,16.56
2022-09-18T19:10:34.776Z,16.53
2022-09-18T19:13:15.781Z,16.43
2022-09-18T19:16:04.075Z,16.35
2022-09-18T19:18:46.817Z,16.34
2022-09-18T19:21:37.836Z,16.17
2022-09-18T19:24:32.769Z,16.26
2022-09-18T19:27:19.866Z,16.26
2022-09-18T19:30:01.528Z,16.19
2022-09-18T19:32:49.243Z,16.13
2022-09-18T19:35:31.779Z,16.15
2022-09-18T19:38:20.422Z,16.15
2022-09-18T19:41:04.684Z,15.90
2022-09-18T19:43:54.248Z,16.02
2022-09-18T19:46:37.827Z,15.93
2022-09-18T19:49:27.927Z,15.78
2022-09-18T19:52:10.532Z,15.78
2022-09-18T19:55:03.063Z,15.69
2022-09-18T19:57:44.813Z,15.70
2022-09-18T20:00:33.058Z,15.55
2022-09-18T20:03:13.783Z,15.48
2022-09-18T20:06:08.427Z,15.45
2022-09-18T20:08:49.186Z,15.49
2022-09-18T20:11:35.919Z,15.48
2022-09-18T20:14:17.231Z,15.51
2022-09-18T20:17:04.967Z,15.48
2022-09-18T20:19:46.827Z,15.66
2022-09-18T20:22:39.971Z,15.53
2022-09-18T20:25:27.162Z,15.37
2022-09-18T20:28:09.706Z,15.33
2022-09-18T20:31:00.804Z,15.29
2022-09-18T20:33:41.934Z,15.27
2022-09-18T20:36:29.806Z,15.29
2022-09-18T20:39:11.719Z,15.40
2022-09-18T20:42:06.819Z,15.49
2022-09-18T20:44:47.940Z,15.25
2022-09-18T20:47:41.847Z,15.18
2022-09-18T20:50:28.040Z,15.28
2022-09-18T20:53:16.219Z,15.16
2022-09-18T20:55:59.230Z,15.02
2022-09-18T20:58:50.001Z,14.90
2022-09-18T21:01:42.135Z,14.84
2022-09-18T21:04:29.810Z,14.98
2022-09-18T21:07:10.963Z,14.92
2022-09-18T21:09:58.351Z,14.97
2022-09-18T21:12:40.667Z,14.97
2022-09-18T21:15:32.224Z,15.03
2022-09-18T21:18:14.523Z,14.93
2022-09-18T21:21:12.623Z,14.76
2022-09-18T21:24:08.912Z,14.77
2022-09-18T21:26:59.235Z,14.80
2022-09-18T21:29:40.799Z,14.66
2022-09-18T21:32:29.293Z,14.68
2022-09-18T21:35:10.228Z,14.64
2022-09-18T21:37:58.968Z,14.87
2022-09-18T21:40:40.064Z,14.77
2022-09-18T21:43:27.093Z,14.56
2022-09-18T21:46:16.463Z,14.57
2022-09-18T21:49:03.855Z,14.73
2022-09-18T21:51:45.231Z,14.76
2022-09-18T21:57:37.018Z,14.45
2022-09-18T22:00:25.869Z,14.22
2022-09-18T22:03:06.963Z,14.19
2022-09-18T22:05:58.252Z,14.36
2022-09-18T22:08:41.235Z,14.36
2022-09-18T22:11:38.075Z,14.30
2022-09-18T22:14:24.958Z,14.36
2022-09-18T22:17:13.894Z,14.16
2022-09-18T22:19:56.600Z,14.20
2022-09-18T22:22:45.240Z,14.07
2022-09-18T22:25:46.875Z,14.00
2022-09-18T22:28:35.849Z,13.91
2022-09-18T22:31:18.176Z,14.08
2022-09-18T22:34:05.879Z,14.07
2022-09-18T22:36:47.064Z,13.97
2022-09-18T22:39:35.879Z,14.01
2022-09-18T22:42:18.532Z,13.90
2022-09-18T22:45:06.905Z,13.79
2022-09-18T22:47:48.035Z,13.77
2022-09-18T22:50:34.979Z,13.74
2022-09-18T22:53:17.706Z,13.79
2022-09-18T22:56:10.297Z,13.67
2022-09-18T22:58:50.996Z,13.76
2022-09-18T23:01:43.231Z,13.75
2022-09-18T23:04:29.144Z,13.70
2022-09-18T23:07:16.911Z,13.62
2022-09-18T23:09:58.177Z,13.71
2022-09-18T23:12:48.035Z,13.55
2022-09-18T23:15:31.570Z,13.44
2022-09-18T23:18:23.235Z,13.53
2022-09-18T23:21:09.016Z,13.56
2022-09-18T23:23:58.247Z,13.38
2022-09-18T23:26:57.891Z,13.53
2022-09-18T23:29:47.934Z,13.31
2022-09-18T23:32:29.120Z,13.40
2022-09-18T23:35:25.700Z,13.32
2022-09-18T23:38:14.532Z,13.19
2022-09-18T23:40:55.898Z,13.29
2022-09-18T23:43:44.032Z,13.29
2022-09-18T23:46:26.957Z,13.30
2022-09-18T23:49:18.176Z,13.24
2022-09-18T23:52:01.952Z,13.12
2022-09-18T23:54:50.263Z,13.12
2022-09-18T23:57:32.947Z,13.17
